Time;durP1;ratioP1;P1;durP2;ratioP2;P2;SDS_P1;SDS_P2;PMS_P1;PMS_P2;Temp;Humidity;BMP_temperature;BMP_pressure;BME280_temperature;BME280_humidity;BME280_pressure;Samples;Min_cycle;Max_cycle;Signal;HPM_P1;HPM_P2
2023/04/28 00:02:25;;;;;;;8.40;4.40;;;;;;;;;;4999072;28;20022;-75
2023/04/28 00:05:11;;;;;;;8.65;4.60;;;;;;;;;;4998533;28;20026;-75
2023/04/28 00:07:57;;;;;;;8.30;4.35;;;;;;;;;;4997617;28;20062;-77
2023/04/28 00:10:42;;;;;;;6.35;4.47;;;;;;;;;;4998296;28;20478;-76
2023/04/28 00:13:28;;;;;;;7.05;4.50;;;;;;;;;;4998967;28;20029;-75
2023/04/28 00:16:13;;;;;;;9.95;4.88;;;;;;;;;;4997742;28;20086;-75
2023/04/28 00:18:59;;;;;;;8.43;4.63;;;;;;;;;;4998407;28;20342;-74
2023/04/28 00:21:44;;;;;;;5.78;4.60;;;;;;;;;;4998064;28;20055;-75
2023/04/28 00:24:32;;;;;;;6.95;4.22;;;;;;;;;;4996501;28;20142;-74
2023/04/28 00:27:19;;;;;;;7.82;4.60;;;;;;;;;;4982771;28;20033;-75
2023/04/28 00:30:05;;;;;;;7.32;4.25;;;;;;;;;;4997195;28;20054;-74
2023/04/28 00:32:51;;;;;;;6.78;4.35;;;;;;;;;;4996842;28;20454;-74
2023/04/28 00:35:36;;;;;;;10.77;5.03;;;;;;;;;;4996899;28;20435;-74
2023/04/28 00:38:24;;;;;;;7.85;4.22;;;;;;;;;;4997212;28;20023;-75
2023/04/28 00:41:10;;;;;;;9.85;4.65;;;;;;;;;;4997224;28;20034;-75
2023/04/28 00:43:56;;;;;;;9.23;4.40;;;;;;;;;;4996153;28;20026;-75
2023/04/28 00:46:41;;;;;;;8.32;4.55;;;;;;;;;;4982447;28;20026;-73
2023/04/28 00:49:27;;;;;;;8.98;4.13;;;;;;;;;;4997172;28;20027;-74
2023/04/28 00:52:13;;;;;;;8.63;4.30;;;;;;;;;;4996191;28;20111;-74
2023/04/28 00:54:58;;;;;;;7.47;4.30;;;;;;;;;;4997083;28;20105;-74
2023/04/28 00:57:44;;;;;;;7.85;4.05;;;;;;;;;;4996428;28;20026;-75
2023/04/28 01:00:30;;;;;;;7.13;4.28;;;;;;;;;;4996479;28;20044;-75
2023/04/28 01:03:16;;;;;;;8.88;4.28;;;;;;;;;;4995839;28;20027;-75
2023/04/28 01:06:01;;;;;;;8.75;4.72;;;;;;;;;;4982400;28;20109;-75
2023/04/28 01:08:48;;;;;;;7.50;4.55;;;;;;;;;;4982312;28;20030;-73
2023/04/28 01:11:33;;;;;;;8.00;4.35;;;;;;;;;;4981839;28;20026;-75
2023/04/28 01:14:19;;;;;;;7.20;4.28;;;;;;;;;;4996833;28;20054;-75
2023/04/28 01:17:05;;;;;;;7.18;4.40;;;;;;;;;;4996567;28;20088;-74
2023/04/28 01:19:51;;;;;;;7.90;4.20;;;;;;;;;;4996619;28;20439;-74
2023/04/28 01:22:37;;;;;;;6.82;3.80;;;;;;;;;;4996552;28;20081;-74
2023/04/28 01:25:23;;;;;;;9.07;4.35;;;;;;;;;;4996213;28;20022;-74
2023/04/28 01:28:09;;;;;;;6.38;3.95;;;;;;;;;;4997276;28;20073;-74
2023/04/28 01:30:55;;;;;;;7.80;4.30;;;;;;;;;;4995653;28;20050;-75
2023/04/28 01:33:41;;;;;;;8.70;4.40;;;;;;;;;;4994812;28;20034;-75
2023/04/28 01:36:27;;;;;;;8.27;4.47;;;;;;;;;;4995448;28;20014;-74
2023/04/28 01:39:13;;;;;;;8.23;3.95;;;;;;;;;;4996354;28;20104;-74
2023/04/28 01:41:59;;;;;;;6.57;3.65;;;;;;;;;;4995973;28;20026;-74
2023/04/28 01:44:45;;;;;;;7.53;4.50;;;;;;;;;;4996564;28;20025;-75
2023/04/28 01:47:30;;;;;;;9.23;4.00;;;;;;;;;;4996861;28;20038;-74
2023/04/28 01:50:16;;;;;;;5.88;4.10;;;;;;;;;;4997717;28;20026;-75
2023/04/28 01:53:01;;;;;;;7.93;4.10;;;;;;;;;;4997118;28;20022;-74
2023/04/28 01:55:47;;;;;;;6.60;4.18;;;;;;;;;;4997738;28;20391;-74
2023/04/28 01:58:33;;;;;;;6.20;4.10;;;;;;;;;;4996504;28;20018;-75
2023/04/28 02:01:18;;;;;;;8.27;4.45;;;;;;;;;;4995237;28;20085;-75
2023/04/28 02:04:04;;;;;;;9.68;4.25;;;;;;;;;;4999102;28;20015;-75
2023/04/28 02:06:49;;;;;;;8.30;4.47;;;;;;;;;;4985904;28;20048;-75
2023/04/28 02:09:35;;;;;;;6.88;4.40;;;;;;;;;;4999527;28;20533;-75
2023/04/28 02:12:20;;;;;;;7.18;4.30;;;;;;;;;;4985734;28;20097;-74
2023/04/28 02:15:06;;;;;;;8.82;4.18;;;;;;;;;;4993942;28;20460;-74
2023/04/28 02:17:52;;;;;;;6.05;4.20;;;;;;;;;;5007422;28;20046;-74
2023/04/28 02:20:38;;;;;;;6.93;4.38;;;;;;;;;;4985388;28;20092;-73
2023/04/28 02:23:23;;;;;;;11.43;4.55;;;;;;;;;;4998915;28;20084;-74
2023/04/28 02:26:09;;;;;;;9.07;4.57;;;;;;;;;;4999697;28;20019;-75
2023/04/28 02:28:54;;;;;;;7.00;4.20;;;;;;;;;;4999520;28;20033;-75
2023/04/28 02:31:40;;;;;;;8.88;4.35;;;;;;;;;;4997948;28;20059;-75
2023/04/28 02:34:26;;;;;;;8.60;4.55;;;;;;;;;;4988968;28;20022;-74
2023/04/28 02:37:11;;;;;;;9.38;4.38;;;;;;;;;;5011433;28;20098;-75
2023/04/28 02:39:57;;;;;;;9.52;4.40;;;;;;;;;;4999542;28;20015;-75
2023/04/28 02:42:42;;;;;;;8.52;4.50;;;;;;;;;;4985722;28;20019;-75
2023/04/28 02:45:28;;;;;;;11.02;4.40;;;;;;;;;;4998509;28;20045;-75
2023/04/28 02:48:13;;;;;;;5.32;3.90;;;;;;;;;;4985940;28;20049;-75
2023/04/28 02:50:59;;;;;;;9.77;4.38;;;;;;;;;;4998757;28;20461;-76
2023/04/28 02:53:45;;;;;;;8.55;4.35;;;;;;;;;;4999487;28;20088;-75
2023/04/28 02:56:31;;;;;;;7.78;4.10;;;;;;;;;;4998498;28;20015;-76
2023/04/28 02:59:17;;;;;;;13.23;4.85;;;;;;;;;;4999102;28;20018;-74
2023/04/28 03:02:02;;;;;;;8.15;4.70;;;;;;;;;;4985414;28;20406;-75
2023/04/28 03:04:48;;;;;;;13.15;5.25;;;;;;;;;;4998976;28;20037;-76
2023/04/28 03:07:33;;;;;;;9.25;5.00;;;;;;;;;;4999014;28;20505;-76
2023/04/28 03:10:19;;;;;;;13.30;5.03;;;;;;;;;;4998070;28;20030;-75
2023/04/28 03:13:05;;;;;;;15.88;5.68;;;;;;;;;;4983819;28;20035;-75
2023/04/28 03:15:51;;;;;;;12.95;5.28;;;;;;;;;;4997144;28;20018;-74
2023/04/28 03:18:36;;;;;;;16.35;5.60;;;;;;;;;;4998660;28;20336;-75
2023/04/28 03:21:22;;;;;;;11.02;4.88;;;;;;;;;;4983456;28;20336;-74
2023/04/28 03:24:08;;;;;;;13.48;5.80;;;;;;;;;;4998512;28;20466;-74
2023/04/28 03:26:53;;;;;;;14.13;6.32;;;;;;;;;;4998638;28;20044;-75
2023/04/28 03:29:39;;;;;;;11.82;6.05;;;;;;;;;;4997501;28;20026;-74
2023/04/28 03:32:24;;;;;;;22.92;10.90;;;;;;;;;;4998291;28;20054;-75
2023/04/28 03:35:10;;;;;;;31.65;12.43;;;;;;;;;;4984876;28;20018;-75
2023/04/28 03:37:56;;;;;;;25.67;9.88;;;;;;;;;;4998540;28;20033;-76
2023/04/28 03:40:41;;;;;;;24.88;11.55;;;;;;;;;;4983336;28;20019;-75
2023/04/28 03:43:27;;;;;;;17.08;9.38;;;;;;;;;;4998443;28;20018;-76
2023/04/28 03:46:12;;;;;;;15.88;8.23;;;;;;;;;;4997867;28;20076;-75
2023/04/28 03:48:58;;;;;;;12.65;8.20;;;;;;;;;;4997534;28;20034;-75
2023/04/28 03:51:44;;;;;;;21.83;9.25;;;;;;;;;;4997525;28;20030;-74
2023/04/28 03:54:30;;;;;;;21.50;9.60;;;;;;;;;;4997217;28;20438;-76
2023/04/28 03:57:15;;;;;;;18.33;9.75;;;;;;;;;;4997960;28;20358;-76
2023/04/28 04:00:01;;;;;;;23.02;10.10;;;;;;;;;;4984350;28;20083;-74
2023/04/28 04:02:46;;;;;;;19.45;10.25;;;;;;;;;;4998343;28;20025;-75
2023/04/28 04:05:32;;;;;;;18.23;10.35;;;;;;;;;;4983093;28;20018;-74
2023/04/28 04:08:18;;;;;;;16.27;10.13;;;;;;;;;;4982022;28;20471;-75
2023/04/28 04:11:03;;;;;;;15.80;8.73;;;;;;;;;;4997192;28;20019;-75
2023/04/28 04:13:49;;;;;;;12.32;7.63;;;;;;;;;;4997825;28;20101;-74
2023/04/28 04:16:35;;;;;;;13.35;6.70;;;;;;;;;;4982645;28;20041;-75
2023/04/28 04:19:22;;;;;;;9.95;6.35;;;;;;;;;;4997193;28;20435;-75
2023/04/28 04:22:08;;;;;;;10.68;6.22;;;;;;;;;;4996700;28;20113;-76
2023/04/28 04:24:54;;;;;;;10.18;6.72;;;;;;;;;;4996697;28;20022;-74
2023/04/28 04:27:39;;;;;;;9.63;6.40;;;;;;;;;;4983553;28;20423;-72
2023/04/28 04:30:25;;;;;;;12.70;6.70;;;;;;;;;;4995512;28;20152;-72
2023/04/28 04:33:11;;;;;;;9.98;6.03;;;;;;;;;;4996615;28;20034;-73
2023/04/28 04:35:56;;;;;;;12.80;7.07;;;;;;;;;;4982677;28;20033;-72
2023/04/28 04:38:42;;;;;;;9.60;6.55;;;;;;;;;;4997144;28;20400;-72
2023/04/28 04:41:27;;;;;;;12.50;6.50;;;;;;;;;;4996605;28;20101;-72
2023/04/28 04:44:13;;;;;;;14.18;6.75;;;;;;;;;;4996225;28;20117;-72
2023/04/28 04:46:59;;;;;;;10.35;5.72;;;;;;;;;;4995105;28;20022;-71
2023/04/28 04:49:44;;;;;;;12.40;6.07;;;;;;;;;;4996683;28;20332;-71
2023/04/28 04:52:30;;;;;;;13.43;6.38;;;;;;;;;;4996370;28;20031;-70
2023/04/28 04:55:15;;;;;;;9.00;5.82;;;;;;;;;;4982264;28;20029;-71
2023/04/28 04:58:01;;;;;;;10.23;6.18;;;;;;;;;;4996338;28;20015;-70
2023/04/28 05:00:46;;;;;;;9.52;5.63;;;;;;;;;;4981211;28;20035;-71
2023/04/28 05:03:32;;;;;;;9.25;5.72;;;;;;;;;;4982700;28;20160;-70
2023/04/28 05:06:18;;;;;;;9.63;5.07;;;;;;;;;;4996386;28;20026;-70
2023/04/28 05:09:03;;;;;;;8.23;5.40;;;;;;;;;;4995692;28;20027;-71
2023/04/28 05:11:49;;;;;;;11.15;5.72;;;;;;;;;;4995513;28;20336;-71
2023/04/28 05:14:34;;;;;;;12.60;5.90;;;;;;;;;;4995715;28;20351;-70
2023/04/28 05:17:20;;;;;;;10.38;5.95;;;;;;;;;;4981727;28;20105;-70
2023/04/28 05:20:06;;;;;;;16.02;6.25;;;;;;;;;;4995391;28;20026;-70
2023/04/28 05:22:52;;;;;;;9.68;6.03;;;;;;;;;;4985524;28;20428;-71
2023/04/28 05:25:37;;;;;;;9.95;5.97;;;;;;;;;;4996942;28;20065;-71
2023/04/28 05:28:23;;;;;;;10.27;6.63;;;;;;;;;;4996299;28;20022;-70
2023/04/28 05:31:08;;;;;;;12.38;6.82;;;;;;;;;;4981300;28;20431;-70
2023/04/28 05:33:54;;;;;;;9.63;6.38;;;;;;;;;;4996732;28;20088;-71
2023/04/28 05:36:40;;;;;;;12.93;6.32;;;;;;;;;;4995797;28;20015;-70
2023/04/28 05:39:26;;;;;;;8.73;5.90;;;;;;;;;;5001398;28;20022;-71
2023/04/28 05:42:11;;;;;;;9.32;5.40;;;;;;;;;;4987681;28;20447;-71
2023/04/28 05:44:57;;;;;;;11.63;5.80;;;;;;;;;;5002659;28;20030;-71
2023/04/28 05:47:43;;;;;;;9.18;5.80;;;;;;;;;;4988596;28;20029;-70
2023/04/28 05:50:28;;;;;;;9.02;5.45;;;;;;;;;;5001071;28;20029;-70
2023/04/28 05:53:14;;;;;;;9.25;5.60;;;;;;;;;;5001658;28;20014;-70
2023/04/28 05:55:59;;;;;;;11.02;5.55;;;;;;;;;;5002762;28;20045;-70
2023/04/28 05:58:46;;;;;;;14.63;5.75;;;;;;;;;;5001746;28;20395;-71
2023/04/28 06:01:31;;;;;;;9.18;5.50;;;;;;;;;;5001783;28;20038;-71
2023/04/28 06:04:17;;;;;;;11.98;7.13;;;;;;;;;;5001026;28;20088;-71
2023/04/28 06:07:03;;;;;;;15.15;6.40;;;;;;;;;;5001249;28;20109;-71
2023/04/28 06:09:48;;;;;;;9.52;5.28;;;;;;;;;;5000946;28;20454;-70
2023/04/28 06:12:35;;;;;;;12.02;6.40;;;;;;;;;;5001297;28;20033;-70
2023/04/28 06:15:21;;;;;;;7.78;5.75;;;;;;;;;;5002239;28;20110;-71
2023/04/28 06:18:08;;;;;;;11.40;5.70;;;;;;;;;;5001393;28;20413;-71
2023/04/28 06:20:54;;;;;;;8.85;5.07;;;;;;;;;;5001254;28;20093;-71
2023/04/28 06:23:41;;;;;;;9.18;5.10;;;;;;;;;;5001980;28;20047;-71
2023/04/28 06:26:26;;;;;;;9.75;5.40;;;;;;;;;;5001661;28;20477;-71
2023/04/28 06:29:12;;;;;;;12.40;6.15;;;;;;;;;;5001355;28;20374;-71
2023/04/28 06:31:57;;;;;;;9.85;5.47;;;;;;;;;;5000824;28;20065;-71
2023/04/28 06:34:43;;;;;;;8.88;5.30;;;;;;;;;;5001149;28;20081;-72
2023/04/28 06:37:29;;;;;;;9.27;5.22;;;;;;;;;;5001338;28;20022;-72
2023/04/28 06:40:14;;;;;;;10.57;5.25;;;;;;;;;;5002131;28;20426;-71
2023/04/28 06:43:00;;;;;;;8.20;4.57;;;;;;;;;;5001918;28;20029;-71
2023/04/28 06:45:46;;;;;;;9.95;6.43;;;;;;;;;;5002173;28;20038;-71
2023/04/28 06:48:31;;;;;;;9.88;4.63;;;;;;;;;;5001436;28;20165;-71
2023/04/28 06:51:17;;;;;;;8.52;4.28;;;;;;;;;;4997227;28;20030;-72
2023/04/28 06:54:02;;;;;;;6.95;4.55;;;;;;;;;;4999112;28;20038;-72
2023/04/28 06:56:48;;;;;;;8.00;4.63;;;;;;;;;;4983713;28;20018;-71
2023/04/28 06:59:34;;;;;;;8.00;4.40;;;;;;;;;;4998315;28;20358;-70
2023/04/28 07:02:19;;;;;;;9.98;4.18;;;;;;;;;;4998395;28;20092;-72
2023/04/28 07:05:05;;;;;;;10.13;4.60;;;;;;;;;;4998707;28;20018;-71
2023/04/28 07:07:51;;;;;;;5.93;4.18;;;;;;;;;;4998254;28;20359;-71
2023/04/28 07:10:36;;;;;;;7.32;4.70;;;;;;;;;;4998602;28;20022;-70
2023/04/28 07:13:22;;;;;;;7.43;4.55;;;;;;;;;;4998759;28;20029;-71
2023/04/28 07:16:09;;;;;;;6.43;4.15;;;;;;;;;;4998405;28;20025;-71
2023/04/28 07:18:55;;;;;;;7.28;4.35;;;;;;;;;;4984570;28;20050;-71
2023/04/28 07:21:41;;;;;;;6.65;3.60;;;;;;;;;;4997807;28;20054;-71
2023/04/28 07:24:27;;;;;;;6.78;3.80;;;;;;;;;;4997724;28;20033;-70
2023/04/28 07:27:13;;;;;;;7.38;3.60;;;;;;;;;;4997864;28;20041;-71
2023/04/28 07:29:59;;;;;;;8.38;4.22;;;;;;;;;;4983046;28;20123;-71
2023/04/28 07:32:44;;;;;;;7.60;4.05;;;;;;;;;;4983414;28;20038;-72
2023/04/28 07:35:30;;;;;;;6.57;3.70;;;;;;;;;;4997302;28;20105;-71
2023/04/28 07:38:17;;;;;;;11.70;3.78;;;;;;;;;;4996750;28;20026;-71
2023/04/28 07:41:03;;;;;;;6.28;3.58;;;;;;;;;;4982337;28;20035;-70
2023/04/28 07:43:48;;;;;;;8.68;4.53;;;;;;;;;;4997881;28;20041;-73
2023/04/28 07:46:34;;;;;;;8.93;4.28;;;;;;;;;;4997929;28;20060;-71
2023/04/28 07:49:19;;;;;;;5.95;3.45;;;;;;;;;;4997018;28;20022;-71
2023/04/28 07:52:05;;;;;;;7.00;3.78;;;;;;;;;;4997343;28;20033;-71
2023/04/28 07:54:51;;;;;;;6.05;4.00;;;;;;;;;;4997963;28;20303;-72
2023/04/28 07:57:36;;;;;;;7.45;3.92;;;;;;;;;;4997853;28;20034;-71
2023/04/28 08:00:22;;;;;;;9.57;3.45;;;;;;;;;;4995760;28;20486;-71
2023/04/28 08:03:08;;;;;;;8.30;3.60;;;;;;;;;;4996383;28;20138;-70
2023/04/28 08:05:53;;;;;;;12.95;4.28;;;;;;;;;;4997164;28;20031;-70
2023/04/28 08:08:39;;;;;;;7.03;3.30;;;;;;;;;;4996188;28;20038;-71
2023/04/28 08:11:25;;;;;;;8.95;3.45;;;;;;;;;;4997498;28;20026;-71
2023/04/28 08:14:11;;;;;;;6.53;3.42;;;;;;;;;;4996342;28;20022;-71
2023/04/28 08:16:56;;;;;;;9.57;4.38;;;;;;;;;;4996157;28;20089;-70
2023/04/28 08:19:45;;;;;;;9.07;3.63;;;;;;;;;;4996133;28;20018;-72
2023/04/28 08:22:30;;;;;;;9.68;3.70;;;;;;;;;;4995914;28;20026;-71
2023/04/28 08:25:17;;;;;;;8.68;5.32;;;;;;;;;;4996380;28;20474;-71
2023/04/28 08:28:03;;;;;;;4.85;3.63;;;;;;;;;;4996719;28;20048;-72
2023/04/28 08:30:48;;;;;;;8.35;3.78;;;;;;;;;;4997339;28;20129;-71
2023/04/28 08:33:34;;;;;;;6.30;3.10;;;;;;;;;;4996578;28;20029;-71
2023/04/28 08:36:20;;;;;;;6.93;2.92;;;;;;;;;;4996598;28;20029;-71
2023/04/28 08:39:07;;;;;;;7.03;3.28;;;;;;;;;;4982025;28;20018;-71
2023/04/28 08:41:53;;;;;;;5.80;3.20;;;;;;;;;;4995555;28;20030;-71
2023/04/28 08:44:39;;;;;;;5.25;3.75;;;;;;;;;;4996633;28;20486;-71
2023/04/28 08:47:32;;;;;;;7.90;3.58;;;;;;;;;;4996358;28;20026;-70
2023/04/28 08:50:21;;;;;;;8.43;3.58;;;;;;;;;;4981910;28;20026;-71
2023/04/28 08:53:06;;;;;;;5.25;3.25;;;;;;;;;;4996459;28;20026;-70
2023/04/28 08:55:56;;;;;;;4.10;2.80;;;;;;;;;;4996955;28;20026;-70
2023/04/28 08:58:42;;;;;;;5.25;3.05;;;;;;;;;;4996679;28;20429;-70
2023/04/28 09:01:27;;;;;;;4.97;3.10;;;;;;;;;;4994486;28;20041;-71
2023/04/28 09:04:15;;;;;;;8.43;3.85;;;;;;;;;;4983423;28;20041;-72
2023/04/28 09:07:00;;;;;;;6.93;3.20;;;;;;;;;;4983231;28;20022;-71
2023/04/28 09:09:46;;;;;;;11.70;4.57;;;;;;;;;;4995857;28;20117;-71
2023/04/28 09:12:35;;;;;;;6.78;3.33;;;;;;;;;;4980957;28;20061;-72
2023/04/28 09:15:25;;;;;;;6.32;3.53;;;;;;;;;;4995855;28;20172;-71
2023/04/28 09:18:13;;;;;;;5.40;3.10;;;;;;;;;;4995730;28;20022;-71
2023/04/28 09:21:06;;;;;;;7.53;3.13;;;;;;;;;;4995810;28;20375;-71
2023/04/28 09:23:51;;;;;;;7.45;3.10;;;;;;;;;;4996299;28;20026;-72
2023/04/28 09:26:52;;;;;;;6.82;3.47;;;;;;;;;;4996196;28;20050;-71
2023/04/28 09:29:38;;;;;;;7.18;3.58;;;;;;;;;;4982341;28;20485;-71
2023/04/28 09:32:26;;;;;;;12.27;3.78;;;;;;;;;;4995926;28;20038;-71
2023/04/28 09:35:11;;;;;;;8.63;3.33;;;;;;;;;;4996454;28;20026;-71
2023/04/28 09:37:57;;;;;;;5.22;3.30;;;;;;;;;;4994750;28;20121;-70
2023/04/28 09:40:52;;;;;;;7.53;3.35;;;;;;;;;;4995903;28;20088;-71
2023/04/28 09:43:38;;;;;;;8.70;3.70;;;;;;;;;;4996336;28;20049;-71
2023/04/28 09:46:27;;;;;;;16.60;3.67;;;;;;;;;;4995646;28;20379;-72
2023/04/28 09:49:14;;;;;;;8.73;5.80;;;;;;;;;;4995372;28;20030;-71
2023/04/28 09:52:12;;;;;;;5.38;2.90;;;;;;;;;;4994622;28;20022;-71
2023/04/28 09:55:00;;;;;;;5.00;3.40;;;;;;;;;;4994999;28;20037;-70
2023/04/28 09:57:46;;;;;;;4.93;3.25;;;;;;;;;;4994797;28;20097;-71
2023/04/28 10:00:32;;;;;;;5.70;3.40;;;;;;;;;;4995623;28;20454;-70
2023/04/28 10:03:20;;;;;;;5.93;3.30;;;;;;;;;;4995733;28;20049;-71
2023/04/28 10:06:07;;;;;;;5.03;3.08;;;;;;;;;;4995112;28;20033;-72
2023/04/28 10:08:54;;;;;;;6.22;3.45;;;;;;;;;;4994991;28;20048;-71
2023/04/28 10:11:39;;;;;;;7.43;3.53;;;;;;;;;;4994461;28;20109;-71
2023/04/28 10:14:25;;;;;;;8.82;5.25;;;;;;;;;;4995897;28;20026;-71
2023/04/28 10:17:14;;;;;;;4.53;3.17;;;;;;;;;;4995688;28;20015;-71
2023/04/28 10:20:00;;;;;;;4.90;3.20;;;;;;;;;;4995395;28;20084;-71
2023/04/28 10:22:58;;;;;;;13.75;3.60;;;;;;;;;;4995057;28;20109;-71
2023/04/28 10:25:47;;;;;;;6.55;3.63;;;;;;;;;;4984727;28;20030;-72
2023/04/28 10:28:32;;;;;;;9.00;3.40;;;;;;;;;;4984890;28;20026;-71
2023/04/28 10:31:22;;;;;;;7.82;3.17;;;;;;;;;;4998925;28;20434;-71
2023/04/28 10:34:24;;;;;;;6.80;3.88;;;;;;;;;;4985288;28;20120;-71
2023/04/28 10:37:09;;;;;;;6.78;3.60;;;;;;;;;;4984512;28;20347;-71
2023/04/28 10:40:14;;;;;;;6.63;3.25;;;;;;;;;;4985368;28;20022;-72
2023/04/28 10:43:00;;;;;;;5.97;3.40;;;;;;;;;;4984186;28;20400;-70
2023/04/28 10:45:51;;;;;;;7.00;3.70;;;;;;;;;;4998109;28;20026;-71
2023/04/28 10:48:46;;;;;;;9.55;4.55;;;;;;;;;;4998922;28;20490;-70
2023/04/28 10:51:32;;;;;;;8.05;3.90;;;;;;;;;;4998426;28;20431;-71
2023/04/28 10:54:18;;;;;;;5.03;3.20;;;;;;;;;;4998154;28;20053;-71
2023/04/28 10:57:17;;;;;;;9.73;4.25;;;;;;;;;;4997990;28;20033;-71
2023/04/28 11:00:21;;;;;;;7.72;3.58;;;;;;;;;;4997612;28;20044;-71
2023/04/28 11:03:07;;;;;;;7.57;3.40;;;;;;;;;;4998036;28;20033;-71
2023/04/28 11:06:11;;;;;;;12.57;4.07;;;;;;;;;;4998638;28;20092;-71
2023/04/28 11:08:59;;;;;;;4.50;3.20;;;;;;;;;;4998801;28;20117;-71
2023/04/28 11:12:09;;;;;;;9.52;3.30;;;;;;;;;;4983696;28;20037;-71
2023/04/28 11:14:55;;;;;;;11.27;4.40;;;;;;;;;;4997551;28;20026;-72
2023/04/28 11:17:40;;;;;;;8.43;3.78;;;;;;;;;;4997797;28;20022;-72
2023/04/28 11:20:27;;;;;;;5.95;3.03;;;;;;;;;;4997475;28;20026;-71
2023/04/28 11:23:13;;;;;;;9.90;3.85;;;;;;;;;;4996979;28;20103;-71
2023/04/28 11:25:58;;;;;;;8.55;3.70;;;;;;;;;;4998534;28;20022;-71
2023/04/28 11:28:55;;;;;;;6.63;3.28;;;;;;;;;;4998300;28;20028;-71
2023/04/28 11:31:48;;;;;;;5.55;3.55;;;;;;;;;;4996576;28;20486;-71
2023/04/28 11:34:33;;;;;;;9.27;3.40;;;;;;;;;;4997591;28;20435;-71
2023/04/28 11:37:20;;;;;;;6.93;3.53;;;;;;;;;;4998231;28;20037;-70
2023/04/28 11:40:10;;;;;;;10.77;4.00;;;;;;;;;;4998087;28;20026;-70
2023/04/28 11:42:57;;;;;;;5.03;3.35;;;;;;;;;;4997364;28;20029;-71
2023/04/28 11:45:45;;;;;;;7.00;3.60;;;;;;;;;;4996861;28;20026;-71
2023/04/28 11:48:31;;;;;;;6.53;3.50;;;;;;;;;;4983019;28;20026;-71
2023/04/28 11:51:31;;;;;;;6.93;3.72;;;;;;;;;;4996750;28;20031;-70
2023/04/28 11:54:24;;;;;;;12.07;4.03;;;;;;;;;;4988214;28;20022;-70
2023/04/28 11:57:16;;;;;;;5.82;3.20;;;;;;;;;;5013490;28;20146;-70
2023/04/28 12:00:18;;;;;;;5.88;3.38;;;;;;;;;;4997393;28;20030;-71
2023/04/28 12:03:07;;;;;;;6.45;3.58;;;;;;;;;;4997783;28;20423;-71
2023/04/28 12:05:52;;;;;;;10.20;3.70;;;;;;;;;;4996903;28;20371;-72
2023/04/28 12:08:38;;;;;;;36.97;5.28;;;;;;;;;;4997570;28;20507;-71
2023/04/28 12:11:23;;;;;;;8.32;3.70;;;;;;;;;;4997693;28;20431;-71
2023/04/28 12:14:09;;;;;;;8.93;3.97;;;;;;;;;;4997349;28;20046;-71
2023/04/28 12:16:55;;;;;;;4.72;3.17;;;;;;;;;;5000967;28;20347;-71
2023/04/28 12:19:44;;;;;;;6.07;3.30;;;;;;;;;;4990780;28;20014;-70
2023/04/28 12:22:30;;;;;;;7.50;3.55;;;;;;;;;;4994889;28;20037;-71
2023/04/28 12:25:18;;;;;;;10.15;3.75;;;;;;;;;;5001850;28;20033;-71
2023/04/28 12:28:04;;;;;;;6.32;3.53;;;;;;;;;;4996389;28;20023;-71
2023/04/28 12:31:02;;;;;;;6.18;3.47;;;;;;;;;;4996637;28;20129;-71
2023/04/28 12:33:48;;;;;;;7.43;3.70;;;;;;;;;;4996318;28;20022;-72
2023/04/28 12:36:34;;;;;;;13.68;3.78;;;;;;;;;;4996729;28;20358;-70
2023/04/28 12:39:21;;;;;;;5.85;3.92;;;;;;;;;;4995723;28;20045;-71
2023/04/28 12:42:07;;;;;;;9.98;3.92;;;;;;;;;;4982412;28;20435;-70
2023/04/28 12:44:53;;;;;;;6.72;3.35;;;;;;;;;;4983308;28;20073;-71
2023/04/28 12:47:38;;;;;;;12.23;5.60;;;;;;;;;;4996184;28;20069;-71
2023/04/28 12:50:25;;;;;;;7.72;3.95;;;;;;;;;;4995672;28;20026;-70
2023/04/28 12:53:11;;;;;;;4.93;3.10;;;;;;;;;;4995529;28;20045;-70
2023/04/28 12:55:57;;;;;;;11.23;3.92;;;;;;;;;;4996712;28;20018;-70
2023/04/28 12:58:42;;;;;;;7.18;3.28;;;;;;;;;;4995858;28;20026;-70
2023/04/28 13:01:28;;;;;;;7.32;3.50;;;;;;;;;;4972895;28;20027;-71
2023/04/28 13:04:14;;;;;;;7.30;3.42;;;;;;;;;;4962091;28;20054;-71
2023/04/28 13:07:00;;;;;;;6.50;3.40;;;;;;;;;;4975975;28;20053;-71
2023/04/28 13:09:45;;;;;;;6.20;3.60;;;;;;;;;;4962514;28;20027;-71
2023/04/28 13:12:32;;;;;;;15.23;3.70;;;;;;;;;;4976394;28;20038;-72
2023/04/28 13:15:18;;;;;;;5.00;3.30;;;;;;;;;;4975920;28;20038;-72
2023/04/28 13:18:04;;;;;;;5.40;3.13;;;;;;;;;;4976369;28;20022;-71
2023/04/28 13:20:49;;;;;;;6.05;3.22;;;;;;;;;;4962548;28;20031;-72
2023/04/28 13:23:35;;;;;;;7.68;3.80;;;;;;;;;;4975964;28;20031;-73
2023/04/28 13:26:23;;;;;;;7.95;3.08;;;;;;;;;;4975643;28;20359;-71
2023/04/28 13:29:09;;;;;;;6.65;3.65;;;;;;;;;;4976573;28;20033;-72
2023/04/28 13:31:55;;;;;;;6.75;3.20;;;;;;;;;;4975621;28;20051;-72
2023/04/28 13:34:41;;;;;;;6.15;3.30;;;;;;;;;;4974820;28;20506;-70
2023/04/28 13:37:26;;;;;;;4.35;3.17;;;;;;;;;;4961551;28;20026;-73
2023/04/28 13:40:12;;;;;;;5.78;3.35;;;;;;;;;;4975915;28;20030;-71
2023/04/28 13:42:58;;;;;;;9.18;3.30;;;;;;;;;;4961834;28;20019;-72
2023/04/28 13:45:43;;;;;;;7.53;3.40;;;;;;;;;;4975065;28;20474;-71
2023/04/28 13:48:29;;;;;;;8.90;3.65;;;;;;;;;;4974797;28;20078;-71
2023/04/28 13:51:14;;;;;;;6.00;3.33;;;;;;;;;;4975409;28;20173;-71
2023/04/28 13:54:03;;;;;;;9.63;3.80;;;;;;;;;;4976251;28;20037;-69
2023/04/28 13:56:48;;;;;;;8.93;3.58;;;;;;;;;;4975446;28;20506;-70
2023/04/28 13:59:34;;;;;;;7.25;3.72;;;;;;;;;;4978037;28;20031;-69
2023/04/28 14:02:20;;;;;;;9.13;3.47;;;;;;;;;;4978486;28;20340;-69
2023/04/28 14:05:06;;;;;;;7.47;3.35;;;;;;;;;;4980090;28;20364;-68
2023/04/28 14:07:54;;;;;;;8.25;3.50;;;;;;;;;;4979000;28;20041;-71
2023/04/28 14:10:40;;;;;;;6.65;3.40;;;;;;;;;;4978824;28;20341;-70
2023/04/28 14:13:26;;;;;;;7.93;3.72;;;;;;;;;;4979282;28;20081;-70
2023/04/28 14:16:11;;;;;;;9.43;4.07;;;;;;;;;;4978395;28;20041;-70
2023/04/28 14:18:57;;;;;;;11.90;3.95;;;;;;;;;;4979968;28;20116;-69
2023/04/28 14:21:43;;;;;;;7.13;3.50;;;;;;;;;;4963508;28;20027;-68
2023/04/28 14:24:29;;;;;;;6.75;3.08;;;;;;;;;;4979845;28;20106;-69
2023/04/28 14:27:14;;;;;;;7.65;3.40;;;;;;;;;;4979408;28;20368;-69
2023/04/28 14:30:00;;;;;;;8.73;3.33;;;;;;;;;;4979643;28;20050;-69
2023/04/28 14:32:46;;;;;;;7.40;3.55;;;;;;;;;;4978024;28;20081;-70
2023/04/28 14:35:33;;;;;;;5.53;3.63;;;;;;;;;;4978093;28;20026;-70
2023/04/28 14:38:19;;;;;;;8.57;3.50;;;;;;;;;;4966011;28;20018;-68
2023/04/28 14:41:04;;;;;;;6.32;3.85;;;;;;;;;;4979219;28;20031;-69
2023/04/28 14:43:50;;;;;;;8.98;3.75;;;;;;;;;;4978518;28;20026;-69
2023/04/28 14:46:36;;;;;;;8.10;3.20;;;;;;;;;;4979480;28;20034;-68
2023/04/28 14:49:22;;;;;;;4.85;3.20;;;;;;;;;;4977859;28;20045;-69
2023/04/28 14:52:08;;;;;;;6.95;3.63;;;;;;;;;;4977821;28;20035;-70
2023/04/28 14:54:54;;;;;;;8.43;3.40;;;;;;;;;;4978269;28;20033;-69
2023/04/28 14:57:40;;;;;;;6.78;3.80;;;;;;;;;;4993652;28;20333;-69
2023/04/28 15:00:26;;;;;;;4.93;3.63;;;;;;;;;;4968629;28;20033;-70
2023/04/28 15:03:12;;;;;;;7.07;3.50;;;;;;;;;;4978835;28;20042;-70
2023/04/28 15:05:57;;;;;;;7.25;3.78;;;;;;;;;;4979215;28;20054;-71
2023/04/28 15:08:43;;;;;;;7.55;3.47;;;;;;;;;;4979024;28;20329;-70
2023/04/28 15:11:28;;;;;;;7.10;3.22;;;;;;;;;;4976895;28;20486;-69
2023/04/28 15:14:14;;;;;;;7.90;3.17;;;;;;;;;;4978879;28;20054;-70
2023/04/28 15:17:00;;;;;;;10.32;3.30;;;;;;;;;;4982565;28;20023;-69
2023/04/28 15:19:46;;;;;;;8.32;3.60;;;;;;;;;;4982352;28;20027;-69
2023/04/28 15:22:32;;;;;;;5.07;3.22;;;;;;;;;;4979068;28;20031;-70
2023/04/28 15:25:17;;;;;;;11.82;3.58;;;;;;;;;;4978511;28;20031;-70
2023/04/28 15:28:05;;;;;;;6.45;3.42;;;;;;;;;;4978472;28;20030;-70
2023/04/28 15:30:51;;;;;;;4.50;2.95;;;;;;;;;;4976618;28;20047;-69
2023/04/28 15:33:37;;;;;;;7.28;3.25;;;;;;;;;;4963761;28;20026;-69
2023/04/28 15:36:23;;;;;;;7.20;3.67;;;;;;;;;;4977867;28;20077;-69
2023/04/28 15:39:09;;;;;;;7.32;3.33;;;;;;;;;;4977510;28;20031;-69
2023/04/28 15:41:55;;;;;;;6.95;3.33;;;;;;;;;;4978580;28;20054;-69
2023/04/28 15:44:40;;;;;;;6.53;3.47;;;;;;;;;;4978549;28;20440;-69
2023/04/28 15:47:28;;;;;;;8.40;3.85;;;;;;;;;;4978163;28;20034;-69
2023/04/28 15:50:14;;;;;;;7.47;3.78;;;;;;;;;;4977148;28;20061;-69
2023/04/28 15:52:59;;;;;;;5.30;3.70;;;;;;;;;;4978035;28;20073;-69
2023/04/28 15:55:45;;;;;;;9.60;3.42;;;;;;;;;;4977944;28;20065;-69
2023/04/28 15:58:30;;;;;;;7.47;3.47;;;;;;;;;;4978036;28;20114;-69
2023/04/28 16:01:17;;;;;;;7.75;4.20;;;;;;;;;;4976642;28;20034;-69
2023/04/28 16:04:02;;;;;;;6.80;3.67;;;;;;;;;;4976574;28;20026;-69
2023/04/28 16:06:50;;;;;;;6.03;3.70;;;;;;;;;;4977550;28;20482;-68
2023/04/28 16:09:36;;;;;;;8.27;3.63;;;;;;;;;;4976327;28;20022;-69
2023/04/28 16:12:22;;;;;;;9.27;4.03;;;;;;;;;;4977226;28;20037;-69
2023/04/28 16:15:08;;;;;;;8.43;3.72;;;;;;;;;;4963049;28;20018;-69
2023/04/28 16:17:55;;;;;;;6.43;3.97;;;;;;;;;;4976646;28;20054;-71
2023/04/28 16:20:41;;;;;;;6.63;3.80;;;;;;;;;;4975678;28;20143;-70
2023/04/28 16:23:26;;;;;;;5.72;3.70;;;;;;;;;;4977399;28;20022;-70
2023/04/28 16:26:12;;;;;;;5.60;3.50;;;;;;;;;;4976794;28;20034;-71
2023/04/28 16:28:58;;;;;;;8.60;3.90;;;;;;;;;;4977151;28;20412;-69
2023/04/28 16:31:43;;;;;;;7.47;3.72;;;;;;;;;;4977131;28;20046;-71
2023/04/28 16:34:29;;;;;;;12.02;4.30;;;;;;;;;;4976249;28;20452;-70
2023/04/28 16:37:15;;;;;;;49.95;6.13;;;;;;;;;;4975576;28;20438;-66